Hlavní strana
METAR-TAF:

METAR-TAF

Letiště :

Jerez de la Frontera, Španělsko

zeměpisná šířka: 36-45N, zeměpisná délka: 006-04W, výška: 27 m

Aktuální stav počasí

Zpráva byla vytvořena před 15 minutami, v 09:00 UTC
Jihojihovýchodní vítr 8 kt, proměnlivý mezi východojihovýchodním a jižním
Teplota 16°C
Vlhkost vzduchu 82%
Tlak 1021 hPa
Viditelnost 10 km a více
Skoro jasno ve výšce 1400 ft
Zataženo ve výšce 2300 ft

METAR: LEJR 060900Z AUTO 15008KT 110V190 9999 FEW014 OVC023 16/13 Q1021

Čas: 11:15 (09:15 UTC)

Předpověď počasí

Zpráva byla vytvořena před 33 minutami, v 08:42 UTC
Předpověď platná od 06 v 08 UTC do 07 v 06 UTC
Jižní vítr 8 kt
Viditelnost 10 km a více
Polojasno ve výšce 3000 ft
Pravděpodobnost 40% :
Dočasný
od 06 v 08 UTC do 06 v 12 UTC
Viditelnost: 4000 m
Oblačno až skoro zataženo ve výšce 1400 ft
slabý déšť
Dočasný
od 06 v 14 UTC do 06 v 19 UTC
Jihozápadní vítr 10 kt

TAF: LEJR 060842Z 0608/0706 17008KT 9999 SCT030 TX25/0614Z TN10/0706Z PROB40 TEMPO 0608/0612 4000 -RA BKN014 TEMPO 0614/0619 23010KT

Stav a předpovědi počasí z více než 4 000 letišť (zprávy METAR a TAF).

Červené a žluté tečky na mapě představují dostupné meteorologické stanice.

Když kurzor umístíte na tečku, zobrazí se název stanice.

Pak kliknutím zobrazíte stav a předpověď počasí.

Chcete-li změnit mapu, kliknutím na zelené tlačítko se znaménkem +mapu přiblížíte, kliknutím na zelené tlačítko se znaménkem – mapu oddálíte a kliknutím na zelené šipky přejdete na sousední mapy.


METAR-TAF: